Time;durP1;ratioP1;P1;durP2;ratioP2;P2;SDS_P1;SDS_P2;PMS_P1;PMS_P2;Temp;Humidity;BMP_temperature;BMP_pressure;BME280_temperature;BME280_humidity;BME280_pressure;Samples;Min_cycle;Max_cycle;Signal;HPM_P1;HPM_P2
2022/03/24 00:01:35;;;;;;;17.30;11.77;;;;;;;;;;5066706;28;20111;-72
2022/03/24 00:04:02;;;;;;;17.30;12.98;;;;;;;;;;5066627;28;20028;-71
2022/03/24 00:06:28;;;;;;;20.27;13.13;;;;;;;;;;5063685;28;20385;-71
2022/03/24 00:08:54;;;;;;;20.85;14.30;;;;;;;;;;5064469;28;20086;-71
2022/03/24 00:11:20;;;;;;;18.52;13.88;;;;;;;;;;5065305;28;20063;-71
2022/03/24 00:13:50;;;;;;;19.75;13.55;;;;;;;;;;5062787;28;20052;-71
2022/03/24 00:16:18;;;;;;;19.50;12.82;;;;;;;;;;5067136;28;20051;-72
2022/03/24 00:18:44;;;;;;;21.17;12.20;;;;;;;;;;5067869;28;20299;-71
2022/03/24 00:21:11;;;;;;;21.33;12.68;;;;;;;;;;5066822;28;20140;-71
2022/03/24 00:23:37;;;;;;;20.25;13.20;;;;;;;;;;5066648;28;20037;-71
2022/03/24 00:26:03;;;;;;;17.30;13.18;;;;;;;;;;5066337;28;20020;-70
2022/03/24 00:28:31;;;;;;;19.38;12.18;;;;;;;;;;5065745;28;20059;-71
2022/03/24 00:30:57;;;;;;;20.15;13.02;;;;;;;;;;5065314;28;20032;-71
2022/03/24 00:33:24;;;;;;;24.33;13.23;;;;;;;;;;5065071;28;20036;-71
2022/03/24 00:35:50;;;;;;;21.05;14.18;;;;;;;;;;5064815;28;20070;-71
2022/03/24 00:38:16;;;;;;;24.85;14.93;;;;;;;;;;5063110;28;20036;-71
2022/03/24 00:40:43;;;;;;;27.25;12.93;;;;;;;;;;5062332;28;20032;-71
2022/03/24 00:43:09;;;;;;;23.52;13.05;;;;;;;;;;5064851;28;20074;-71
2022/03/24 00:45:35;;;;;;;17.90;11.80;;;;;;;;;;5066732;28;20421;-71
2022/03/24 00:48:02;;;;;;;19.33;11.38;;;;;;;;;;5061957;28;20111;-71
2022/03/24 00:50:28;;;;;;;16.10;12.30;;;;;;;;;;5064409;28;20393;-71
2022/03/24 00:52:54;;;;;;;21.05;11.73;;;;;;;;;;5065406;28;20025;-71
2022/03/24 00:55:21;;;;;;;15.63;11.45;;;;;;;;;;5064818;28;20037;-71
2022/03/24 00:57:49;;;;;;;26.02;13.07;;;;;;;;;;5065616;28;20055;-71
2022/03/24 01:00:16;;;;;;;14.75;10.77;;;;;;;;;;5065659;28;20025;-71
2022/03/24 01:02:47;;;;;;;21.25;11.65;;;;;;;;;;5063486;28;20032;-71
2022/03/24 01:05:13;;;;;;;24.02;11.60;;;;;;;;;;5068736;28;20090;-71
2022/03/24 01:07:40;;;;;;;21.63;11.85;;;;;;;;;;5067023;28;20027;-71
2022/03/24 01:10:07;;;;;;;17.90;11.23;;;;;;;;;;5068765;28;20044;-71
2022/03/24 01:12:34;;;;;;;18.27;11.55;;;;;;;;;;5068873;28;20415;-72
2022/03/24 01:15:00;;;;;;;18.23;11.27;;;;;;;;;;5069505;28;20070;-71
2022/03/24 01:17:26;;;;;;;16.90;11.77;;;;;;;;;;5067293;28;20028;-71
2022/03/24 01:19:56;;;;;;;16.52;11.10;;;;;;;;;;5071137;28;20115;-71
2022/03/24 01:22:22;;;;;;;18.38;11.20;;;;;;;;;;5067076;28;20020;-71
2022/03/24 01:24:48;;;;;;;19.35;11.95;;;;;;;;;;5069291;28;20044;-70
2022/03/24 01:27:15;;;;;;;14.15;10.77;;;;;;;;;;5068628;28;20024;-71
2022/03/24 01:29:41;;;;;;;14.13;10.70;;;;;;;;;;5063020;28;20031;-71
2022/03/24 01:32:08;;;;;;;16.83;10.50;;;;;;;;;;5078785;28;20120;-71
2022/03/24 01:34:40;;;;;;;14.45;10.25;;;;;;;;;;5070582;28;20036;-71
2022/03/24 01:37:07;;;;;;;18.05;10.43;;;;;;;;;;5069740;28;20092;-71
2022/03/24 01:39:33;;;;;;;17.15;10.30;;;;;;;;;;5068394;28;20033;-72
2022/03/24 01:42:00;;;;;;;20.67;11.55;;;;;;;;;;5068744;28;20020;-71
2022/03/24 01:44:28;;;;;;;19.63;11.68;;;;;;;;;;5068280;28;20028;-71
2022/03/24 01:46:56;;;;;;;16.83;10.13;;;;;;;;;;5069306;28;20058;-71
2022/03/24 01:49:24;;;;;;;12.65;10.07;;;;;;;;;;5067486;28;20024;-71
2022/03/24 01:51:50;;;;;;;15.57;9.88;;;;;;;;;;5065799;28;20429;-71
2022/03/24 01:54:16;;;;;;;17.85;9.85;;;;;;;;;;5067131;28;20020;-71
2022/03/24 01:56:44;;;;;;;13.30;9.65;;;;;;;;;;5066799;28;20587;-71
2022/03/24 01:59:11;;;;;;;14.70;9.30;;;;;;;;;;5067679;28;20029;-71
2022/03/24 02:01:37;;;;;;;16.27;9.20;;;;;;;;;;5063896;28;20025;-71
2022/03/24 02:04:04;;;;;;;14.90;9.75;;;;;;;;;;5067682;28;20055;-70
2022/03/24 02:06:33;;;;;;;10.82;8.60;;;;;;;;;;5066930;28;20111;-71
2022/03/24 02:09:00;;;;;;;12.88;9.50;;;;;;;;;;5064233;28;20107;-71
2022/03/24 02:11:30;;;;;;;13.70;8.98;;;;;;;;;;5065832;28;20386;-71
2022/03/24 02:13:56;;;;;;;12.60;9.13;;;;;;;;;;5061776;28;20044;-71
2022/03/24 02:16:27;;;;;;;12.95;9.32;;;;;;;;;;5064310;28;20028;-70
2022/03/24 02:18:59;;;;;;;14.55;10.45;;;;;;;;;;5066904;28;20019;-70
2022/03/24 02:21:25;;;;;;;15.88;9.15;;;;;;;;;;5060912;28;20085;-70
2022/03/24 02:23:51;;;;;;;18.45;10.02;;;;;;;;;;5068790;28;20500;-70
2022/03/24 02:26:20;;;;;;;13.25;8.88;;;;;;;;;;5065572;28;20092;-70
2022/03/24 02:28:46;;;;;;;13.30;9.18;;;;;;;;;;5067492;28;20021;-71
2022/03/24 02:31:13;;;;;;;15.15;9.80;;;;;;;;;;5067217;28;20458;-70
2022/03/24 02:33:39;;;;;;;14.68;9.32;;;;;;;;;;5070155;28;20016;-71
2022/03/24 02:36:07;;;;;;;13.85;9.27;;;;;;;;;;5071261;28;20095;-70
2022/03/24 02:38:33;;;;;;;14.05;10.18;;;;;;;;;;5086883;28;20036;-71
2022/03/24 02:40:59;;;;;;;13.98;9.60;;;;;;;;;;5068766;28;20058;-71
2022/03/24 02:43:25;;;;;;;12.70;9.07;;;;;;;;;;5068731;28;20020;-72
2022/03/24 02:45:53;;;;;;;14.43;10.07;;;;;;;;;;5068376;28;20255;-71
2022/03/24 02:48:23;;;;;;;13.02;8.63;;;;;;;;;;5067917;28;20036;-70
2022/03/24 02:50:49;;;;;;;15.88;9.40;;;;;;;;;;5067035;28;20374;-72
2022/03/24 02:53:16;;;;;;;13.45;9.32;;;;;;;;;;5066947;28;20127;-71
2022/03/24 02:55:42;;;;;;;17.70;10.23;;;;;;;;;;5067505;28;20033;-71
2022/03/24 02:58:08;;;;;;;12.73;9.55;;;;;;;;;;5067180;28;20035;-70
2022/03/24 03:00:34;;;;;;;13.63;8.98;;;;;;;;;;5065964;28;20059;-70
2022/03/24 03:03:00;;;;;;;14.68;10.02;;;;;;;;;;5063458;28;20016;-71
2022/03/24 03:05:26;;;;;;;14.00;9.75;;;;;;;;;;5065941;28;20040;-70
2022/03/24 03:07:53;;;;;;;15.88;9.65;;;;;;;;;;5068264;28;20050;-70
2022/03/24 03:10:19;;;;;;;17.15;10.43;;;;;;;;;;5067023;28;20099;-71
2022/03/24 03:12:46;;;;;;;14.65;10.68;;;;;;;;;;5067480;28;20048;-70
2022/03/24 03:15:12;;;;;;;12.68;9.50;;;;;;;;;;5065109;28;20414;-71
2022/03/24 03:17:39;;;;;;;15.25;9.65;;;;;;;;;;5065433;28;20574;-70
2022/03/24 03:20:10;;;;;;;14.98;10.00;;;;;;;;;;5064467;28;20032;-71
2022/03/24 03:22:37;;;;;;;13.35;10.00;;;;;;;;;;5066468;28;20020;-71
2022/03/24 03:25:03;;;;;;;17.38;9.48;;;;;;;;;;5065644;28;20024;-70
2022/03/24 03:27:31;;;;;;;14.10;9.50;;;;;;;;;;5081070;28;20033;-70
2022/03/24 03:29:57;;;;;;;14.60;9.52;;;;;;;;;;5071915;28;20077;-71
2022/03/24 03:32:24;;;;;;;15.13;9.60;;;;;;;;;;5069129;28;20036;-70
2022/03/24 03:34:50;;;;;;;19.75;9.52;;;;;;;;;;5062423;28;20549;-71
2022/03/24 03:37:16;;;;;;;15.43;9.93;;;;;;;;;;5064762;28;20402;-70
2022/03/24 03:39:42;;;;;;;13.25;9.75;;;;;;;;;;5067641;28;20107;-71
2022/03/24 03:42:08;;;;;;;15.57;10.40;;;;;;;;;;5064177;28;20131;-71
2022/03/24 03:44:35;;;;;;;15.27;10.15;;;;;;;;;;5066632;28;20024;-71
2022/03/24 03:47:01;;;;;;;14.40;9.90;;;;;;;;;;5065371;28;20037;-71
2022/03/24 03:49:27;;;;;;;16.08;10.60;;;;;;;;;;5065157;28;20040;-71
2022/03/24 03:51:54;;;;;;;16.33;10.00;;;;;;;;;;5066289;28;20028;-71
2022/03/24 03:54:21;;;;;;;15.57;9.98;;;;;;;;;;5060357;28;20032;-70
2022/03/24 03:56:47;;;;;;;16.35;10.77;;;;;;;;;;5066494;28;20035;-70
2022/03/24 03:59:13;;;;;;;23.23;11.18;;;;;;;;;;5064314;28;20029;-70
2022/03/24 04:01:39;;;;;;;18.73;11.02;;;;;;;;;;5064759;28;20027;-71
2022/03/24 04:04:12;;;;;;;16.27;10.77;;;;;;;;;;5061763;28;20056;-71
2022/03/24 04:06:38;;;;;;;18.83;11.68;;;;;;;;;;5065612;28;20136;-71
2022/03/24 04:09:04;;;;;;;21.02;11.60;;;;;;;;;;5066290;28;20028;-71
2022/03/24 04:11:30;;;;;;;16.50;11.15;;;;;;;;;;5064457;28;20201;-70
2022/03/24 04:13:56;;;;;;;16.23;11.25;;;;;;;;;;5068500;28;20064;-72
2022/03/24 04:16:22;;;;;;;18.20;11.70;;;;;;;;;;5062420;28;20444;-71
2022/03/24 04:18:49;;;;;;;16.77;11.40;;;;;;;;;;5067546;28;20052;-71
2022/03/24 04:21:16;;;;;;;16.65;9.50;;;;;;;;;;5059539;28;20365;-71
2022/03/24 04:23:43;;;;;;;17.70;10.63;;;;;;;;;;5066009;28;20527;-70
2022/03/24 04:26:12;;;;;;;15.85;11.43;;;;;;;;;;5068115;28;20048;-71
2022/03/24 04:28:38;;;;;;;15.23;10.80;;;;;;;;;;5065901;28;20021;-70
2022/03/24 04:31:05;;;;;;;14.73;10.57;;;;;;;;;;5067832;28;20035;-70
2022/03/24 04:33:31;;;;;;;14.20;9.20;;;;;;;;;;5064235;28;20062;-71
2022/03/24 04:35:58;;;;;;;16.17;11.02;;;;;;;;;;5064526;28;20651;-70
2022/03/24 04:38:26;;;;;;;17.90;11.48;;;;;;;;;;5079644;28;20033;-70
2022/03/24 04:40:52;;;;;;;17.05;10.60;;;;;;;;;;5065595;28;20025;-70
2022/03/24 04:43:18;;;;;;;16.20;9.75;;;;;;;;;;5069349;28;20095;-70
2022/03/24 04:45:45;;;;;;;21.10;10.55;;;;;;;;;;5067238;28;20031;-70
2022/03/24 04:48:11;;;;;;;18.13;11.50;;;;;;;;;;5066368;28;20040;-70
2022/03/24 04:50:37;;;;;;;15.35;11.05;;;;;;;;;;5066834;28;20115;-70
2022/03/24 04:53:03;;;;;;;14.52;10.63;;;;;;;;;;5066537;28;20055;-70
2022/03/24 04:55:29;;;;;;;16.88;11.25;;;;;;;;;;5064674;28;20465;-70
2022/03/24 04:57:55;;;;;;;16.95;10.40;;;;;;;;;;5063213;28;20082;-70
2022/03/24 05:00:22;;;;;;;18.42;11.00;;;;;;;;;;5065635;28;20066;-71
2022/03/24 05:02:48;;;;;;;18.77;11.80;;;;;;;;;;5067401;28;20158;-71
2022/03/24 05:05:17;;;;;;;17.60;10.93;;;;;;;;;;5063317;28;20020;-70
2022/03/24 05:07:43;;;;;;;19.05;10.15;;;;;;;;;;5062169;28;20112;-70
2022/03/24 05:10:10;;;;;;;16.35;10.90;;;;;;;;;;5065295;28;20111;-69
2022/03/24 05:12:38;;;;;;;16.60;10.43;;;;;;;;;;5062083;28;20040;-70
2022/03/24 05:15:04;;;;;;;19.73;10.82;;;;;;;;;;5065834;28;20032;-70
2022/03/24 05:17:30;;;;;;;15.57;10.10;;;;;;;;;;5061636;28;20036;-70
2022/03/24 05:19:56;;;;;;;20.27;11.18;;;;;;;;;;5064927;28;20052;-70
2022/03/24 05:22:22;;;;;;;16.42;10.48;;;;;;;;;;5067251;28;20501;-71
2022/03/24 05:24:49;;;;;;;16.10;11.23;;;;;;;;;;5065587;28;20101;-71
2022/03/24 05:27:15;;;;;;;17.42;11.02;;;;;;;;;;5064011;28;20028;-71
2022/03/24 05:29:41;;;;;;;19.23;12.15;;;;;;;;;;5066771;28;20047;-71
2022/03/24 05:32:07;;;;;;;19.38;12.27;;;;;;;;;;5066352;28;20028;-71
2022/03/24 05:34:33;;;;;;;15.68;11.02;;;;;;;;;;5067640;28;20122;-71
2022/03/24 05:37:00;;;;;;;21.42;11.60;;;;;;;;;;5062725;28;20510;-70
2022/03/24 05:39:26;;;;;;;15.93;10.27;;;;;;;;;;5069734;28;20028;-71
2022/03/24 05:41:52;;;;;;;17.48;11.80;;;;;;;;;;5066521;28;20095;-71
2022/03/24 05:44:19;;;;;;;19.40;11.90;;;;;;;;;;5061752;28;20040;-70
2022/03/24 05:46:45;;;;;;;17.73;10.93;;;;;;;;;;5063945;28;20158;-70
2022/03/24 05:49:15;;;;;;;18.10;12.52;;;;;;;;;;5068140;28;20032;-70
2022/03/24 05:51:42;;;;;;;16.90;11.10;;;;;;;;;;5065126;28;20423;-70
2022/03/24 05:54:13;;;;;;;16.35;11.43;;;;;;;;;;5066586;28;20059;-71
2022/03/24 05:56:39;;;;;;;18.38;11.70;;;;;;;;;;5068583;28;20055;-70
2022/03/24 05:59:05;;;;;;;19.48;11.25;;;;;;;;;;5069014;28;20017;-70
2022/03/24 06:01:33;;;;;;;15.82;11.00;;;;;;;;;;5067001;28;20572;-70
2022/03/24 06:03:59;;;;;;;22.95;12.07;;;;;;;;;;5068420;28;20036;-70
2022/03/24 06:06:28;;;;;;;19.92;11.70;;;;;;;;;;5071049;28;20023;-70
2022/03/24 06:08:56;;;;;;;19.75;13.73;;;;;;;;;;5071235;28;20537;-70
2022/03/24 06:11:23;;;;;;;20.23;12.60;;;;;;;;;;5069142;28;20052;-71
2022/03/24 06:13:49;;;;;;;19.38;11.63;;;;;;;;;;5071272;28;20033;-69
2022/03/24 06:16:15;;;;;;;19.77;12.85;;;;;;;;;;5070901;28;20029;-70
2022/03/24 06:18:42;;;;;;;19.50;12.10;;;;;;;;;;5067972;28;20102;-70
2022/03/24 06:21:08;;;;;;;21.42;12.38;;;;;;;;;;5069925;28;20079;-70
2022/03/24 06:23:34;;;;;;;18.13;10.95;;;;;;;;;;5065909;28;20021;-70
2022/03/24 06:26:01;;;;;;;18.98;11.32;;;;;;;;;;5070838;28;20028;-71
2022/03/24 06:28:28;;;;;;;18.95;11.02;;;;;;;;;;5066280;28;20521;-71
2022/03/24 06:30:54;;;;;;;18.42;12.10;;;;;;;;;;5067709;28;20031;-71
2022/03/24 06:33:20;;;;;;;17.02;11.13;;;;;;;;;;5070715;28;20036;-71
2022/03/24 06:35:48;;;;;;;20.38;11.35;;;;;;;;;;5070458;28;20037;-71
2022/03/24 06:38:14;;;;;;;18.40;11.93;;;;;;;;;;5066928;28;20031;-70
2022/03/24 06:40:40;;;;;;;17.75;10.77;;;;;;;;;;5068919;28;20095;-71
2022/03/24 06:43:08;;;;;;;17.98;11.65;;;;;;;;;;5077088;28;20082;-70
2022/03/24 06:45:34;;;;;;;22.73;12.68;;;;;;;;;;5067613;28;20031;-70
2022/03/24 06:48:01;;;;;;;17.35;11.88;;;;;;;;;;5064224;28;20028;-71
2022/03/24 06:50:27;;;;;;;26.05;12.88;;;;;;;;;;5068076;28;20037;-70
2022/03/24 06:52:54;;;;;;;17.60;11.50;;;;;;;;;;5064159;28;20047;-71
2022/03/24 06:55:20;;;;;;;20.70;11.48;;;;;;;;;;5062787;28;20137;-71
2022/03/24 06:57:46;;;;;;;19.88;12.23;;;;;;;;;;5064724;28;20139;-70
2022/03/24 07:00:14;;;;;;;20.38;12.60;;;;;;;;;;5063267;28;20153;-70
2022/03/24 07:02:43;;;;;;;19.42;12.23;;;;;;;;;;5067327;28;20098;-69
2022/03/24 07:05:11;;;;;;;19.05;11.95;;;;;;;;;;5066533;28;20033;-71
2022/03/24 07:07:37;;;;;;;18.75;12.05;;;;;;;;;;5065199;28;20029;-70
2022/03/24 07:10:04;;;;;;;21.52;13.13;;;;;;;;;;5063779;28;20027;-70
2022/03/24 07:12:30;;;;;;;20.00;13.07;;;;;;;;;;5067019;28;20397;-70
2022/03/24 07:14:57;;;;;;;24.10;11.70;;;;;;;;;;5065210;28;20113;-70
2022/03/24 07:17:23;;;;;;;19.98;13.50;;;;;;;;;;5066812;28;20032;-71
2022/03/24 07:19:49;;;;;;;18.63;12.20;;;;;;;;;;5062967;28;20470;-69
2022/03/24 07:22:16;;;;;;;21.70;12.07;;;;;;;;;;5065045;28;20020;-70
2022/03/24 07:24:42;;;;;;;20.83;13.05;;;;;;;;;;5063880;28;20028;-70
2022/03/24 07:27:10;;;;;;;20.88;11.35;;;;;;;;;;5062460;28;20028;-70
2022/03/24 07:29:36;;;;;;;16.73;11.40;;;;;;;;;;5064043;28;20028;-70
2022/03/24 07:32:02;;;;;;;17.02;11.93;;;;;;;;;;5065656;28;20143;-70
2022/03/24 07:34:28;;;;;;;17.58;11.82;;;;;;;;;;5067952;28;20028;-69
2022/03/24 07:36:55;;;;;;;18.75;11.05;;;;;;;;;;5066814;28;20118;-70
2022/03/24 07:39:21;;;;;;;19.63;11.38;;;;;;;;;;5066427;28;20040;-70
2022/03/24 07:41:47;;;;;;;18.85;12.32;;;;;;;;;;5067495;28;20422;-70
2022/03/24 07:44:13;;;;;;;18.63;10.88;;;;;;;;;;5067198;28;20028;-70
2022/03/24 07:46:41;;;;;;;15.68;10.00;;;;;;;;;;5065893;28;20560;-70
2022/03/24 07:49:07;;;;;;;16.23;10.98;;;;;;;;;;5065302;28;20414;-69
2022/03/24 07:51:34;;;;;;;17.88;12.07;;;;;;;;;;5064893;28;20075;-70
2022/03/24 07:54:02;;;;;;;15.38;10.45;;;;;;;;;;5067798;28;20081;-70
2022/03/24 07:56:29;;;;;;;15.90;10.90;;;;;;;;;;5066657;28;20843;-70
2022/03/24 07:58:56;;;;;;;14.00;9.75;;;;;;;;;;5067534;28;20023;-71
2022/03/24 08:01:29;;;;;;;14.30;10.48;;;;;;;;;;5064620;28;20020;-70
2022/03/24 08:03:56;;;;;;;17.25;10.48;;;;;;;;;;5067671;28;20096;-71
2022/03/24 08:06:22;;;;;;;15.55;9.93;;;;;;;;;;5067147;28;20024;-70
2022/03/24 08:08:48;;;;;;;16.25;10.88;;;;;;;;;;5063822;28;20028;-70
2022/03/24 08:11:14;;;;;;;15.15;9.60;;;;;;;;;;5067342;28;20013;-70
2022/03/24 08:13:40;;;;;;;14.82;9.75;;;;;;;;;;5065978;28;20114;-70
2022/03/24 08:16:07;;;;;;;13.77;9.90;;;;;;;;;;5067341;28;20024;-70
2022/03/24 08:18:33;;;;;;;14.60;9.32;;;;;;;;;;5063562;28;20028;-71
2022/03/24 08:20:59;;;;;;;14.57;9.60;;;;;;;;;;5068198;28;20028;-71
2022/03/24 08:23:25;;;;;;;16.05;9.80;;;;;;;;;;5068685;28;20208;-71
2022/03/24 08:25:53;;;;;;;14.57;10.95;;;;;;;;;;5070242;28;20027;-71
2022/03/24 08:28:19;;;;;;;13.35;9.63;;;;;;;;;;5071714;28;20028;-72
2022/03/24 08:30:46;;;;;;;14.45;9.30;;;;;;;;;;5068811;28;20027;-71
2022/03/24 08:33:13;;;;;;;17.55;10.05;;;;;;;;;;5068926;28;20036;-70
2022/03/24 08:35:40;;;;;;;17.20;10.15;;;;;;;;;;5065310;28;20364;-70
2022/03/24 08:38:07;;;;;;;17.63;10.27;;;;;;;;;;5066257;28;20027;-71
2022/03/24 08:40:33;;;;;;;15.00;9.52;;;;;;;;;;5066328;28;20025;-70
2022/03/24 08:42:59;;;;;;;16.27;9.57;;;;;;;;;;5066850;28;20418;-72
2022/03/24 08:45:26;;;;;;;14.68;10.45;;;;;;;;;;5066632;28;20104;-71
2022/03/24 08:47:53;;;;;;;15.82;9.98;;;;;;;;;;5067829;28;20029;-71
2022/03/24 08:50:20;;;;;;;14.05;9.68;;;;;;;;;;5065061;28;20090;-71
2022/03/24 08:52:46;;;;;;;14.38;9.35;;;;;;;;;;5061610;28;20112;-70
2022/03/24 08:55:16;;;;;;;16.95;9.95;;;;;;;;;;5063436;28;20044;-71
2022/03/24 08:57:42;;;;;;;13.07;9.15;;;;;;;;;;5061542;28;20036;-70
2022/03/24 09:00:12;;;;;;;11.95;8.32;;;;;;;;;;5062663;28;20025;-71
2022/03/24 09:02:48;;;;;;;12.35;8.63;;;;;;;;;;5064675;28;20016;-71
2022/03/24 09:05:16;;;;;;;15.38;9.45;;;;;;;;;;5065771;28;20374;-71
2022/03/24 09:07:42;;;;;;;11.73;8.85;;;;;;;;;;4991160;28;21557;-70
2022/03/24 09:10:10;;;;;;;14.50;8.02;;;;;;;;;;5001568;28;20562;-71
2022/03/24 09:12:37;;;;;;;12.98;8.57;;;;;;;;;;4997599;28;20496;-71
2022/03/24 09:15:05;;;;;;;10.18;8.02;;;;;;;;;;4996856;28;20037;-71
2022/03/24 09:17:32;;;;;;;10.63;7.80;;;;;;;;;;5004101;28;20030;-71
2022/03/24 09:19:59;;;;;;;10.40;8.32;;;;;;;;;;4995021;28;20032;-72
2022/03/24 09:22:25;;;;;;;12.32;7.88;;;;;;;;;;5005126;28;20030;-71
2022/03/24 09:24:51;;;;;;;10.10;8.32;;;;;;;;;;5000843;28;20499;-71
2022/03/24 09:27:17;;;;;;;12.48;7.35;;;;;;;;;;5004811;28;20030;-72
2022/03/24 09:29:43;;;;;;;12.32;7.43;;;;;;;;;;5005648;28;20026;-71
2022/03/24 09:32:12;;;;;;;17.00;7.97;;;;;;;;;;5001751;28;20030;-70
2022/03/24 09:34:39;;;;;;;15.60;7.75;;;;;;;;;;5000234;28;20026;-71
2022/03/24 09:37:06;;;;;;;12.73;7.88;;;;;;;;;;5004721;28;20025;-71
2022/03/24 09:39:32;;;;;;;10.75;8.68;;;;;;;;;;4998769;28;20080;-71
2022/03/24 09:41:58;;;;;;;10.52;6.65;;;;;;;;;;4993671;28;20061;-70
2022/03/24 09:44:24;;;;;;;11.23;9.05;;;;;;;;;;4998800;28;20112;-71
2022/03/24 09:46:51;;;;;;;10.80;7.78;;;;;;;;;;5001544;28;20026;-72
2022/03/24 09:49:17;;;;;;;10.48;7.57;;;;;;;;;;5002087;28;20565;-71
2022/03/24 09:51:43;;;;;;;13.35;7.53;;;;;;;;;;5000337;28;20082;-72
2022/03/24 09:54:11;;;;;;;11.02;7.65;;;;;;;;;;4998247;28;20030;-72
2022/03/24 09:56:37;;;;;;;9.48;7.05;;;;;;;;;;5005104;28;20539;-71
2022/03/24 09:59:03;;;;;;;12.20;7.05;;;;;;;;;;5001282;28;20093;-70
2022/03/24 10:01:30;;;;;;;9.95;6.38;;;;;;;;;;4998666;28;20139;-71
2022/03/24 10:04:14;;;;;;;8.38;6.65;;;;;;;;;;5006213;28;20029;-71
2022/03/24 10:06:41;;;;;;;10.75;7.13;;;;;;;;;;4998468;28;20022;-71
2022/03/24 10:09:07;;;;;;;13.48;7.15;;;;;;;;;;5005270;28;20058;-72
2022/03/24 10:11:35;;;;;;;8.70;6.65;;;;;;;;;;4997980;28;20026;-71
2022/03/24 10:14:02;;;;;;;7.95;5.93;;;;;;;;;;5004720;28;20050;-71
2022/03/24 10:16:34;;;;;;;12.65;6.95;;;;;;;;;;5003108;28;20029;-71
2022/03/24 10:19:05;;;;;;;15.93;7.05;;;;;;;;;;4999223;28;20027;-71
2022/03/24 10:21:35;;;;;;;8.77;6.60;;;;;;;;;;5000140;28;20029;-71
2022/03/24 10:24:07;;;;;;;12.38;7.50;;;;;;;;;;5001830;28;20026;-72
2022/03/24 10:27:00;;;;;;;11.50;8.05;;;;;;;;;;5006049;28;20030;-71
2022/03/24 10:29:27;;;;;;;11.02;7.15;;;;;;;;;;4999635;28;20080;-71
2022/03/24 10:32:00;;;;;;;10.23;7.10;;;;;;;;;;4997480;28;20034;-71
2022/03/24 10:34:31;;;;;;;13.13;7.10;;;;;;;;;;5005817;28;20040;-72
2022/03/24 10:36:58;;;;;;;11.80;6.35;;;;;;;;;;4999806;28;20056;-71
2022/03/24 10:39:25;;;;;;;10.02;5.63;;;;;;;;;;5001326;28;20033;-72
2022/03/24 10:41:52;;;;;;;7.72;6.32;;;;;;;;;;5016065;28;20074;-72
2022/03/24 10:44:19;;;;;;;13.05;6.90;;;;;;;;;;4998719;28;20030;-72
2022/03/24 10:46:45;;;;;;;8.88;5.85;;;;;;;;;;4997934;28;20068;-71
2022/03/24 10:49:19;;;;;;;10.88;6.13;;;;;;;;;;5003269;28;20488;-72
2022/03/24 10:51:46;;;;;;;12.40;7.03;;;;;;;;;;4996074;28;20092;-72
2022/03/24 10:54:16;;;;;;;7.75;6.35;;;;;;;;;;5005148;28;20037;-72
2022/03/24 10:57:05;;;;;;;12.32;6.43;;;;;;;;;;4999160;28;20554;-71
2022/03/24 10:59:34;;;;;;;11.80;6.78;;;;;;;;;;4997103;28;20038;-71
2022/03/24 11:02:00;;;;;;;10.02;6.70;;;;;;;;;;5001999;28;20379;-71
2022/03/24 11:04:26;;;;;;;9.77;7.20;;;;;;;;;;5001853;28;20034;-72
2022/03/24 11:06:53;;;;;;;12.18;6.90;;;;;;;;;;5005111;28;20157;-72
2022/03/24 11:09:23;;;;;;;8.85;5.97;;;;;;;;;;5002374;28;20117;-72
2022/03/24 11:12:09;;;;;;;11.07;5.93;;;;;;;;;;5000145;28;20033;-71
2022/03/24 11:14:39;;;;;;;9.27;6.63;;;;;;;;;;5003858;28;20692;-73
2022/03/24 11:17:06;;;;;;;10.98;6.07;;;;;;;;;;5005792;28;20037;-71
2022/03/24 11:19:32;;;;;;;9.75;6.80;;;;;;;;;;4998179;28;20032;-71
2022/03/24 11:21:59;;;;;;;12.05;7.50;;;;;;;;;;5000105;28;20037;-71
2022/03/24 11:24:25;;;;;;;10.60;6.22;;;;;;;;;;5002975;28;20065;-70
2022/03/24 11:26:52;;;;;;;11.13;6.30;;;;;;;;;;5003484;28;20104;-71
2022/03/24 11:29:18;;;;;;;10.55;6.90;;;;;;;;;;4996783;28;20045;-71
2022/03/24 11:31:45;;;;;;;8.05;6.07;;;;;;;;;;4996534;28;20475;-72
2022/03/24 11:34:11;;;;;;;11.38;6.25;;;;;;;;;;4995371;28;20030;-71
2022/03/24 11:36:37;;;;;;;7.45;6.22;;;;;;;;;;5003769;28;20101;-71
2022/03/24 11:39:05;;;;;;;9.15;6.15;;;;;;;;;;4998533;28;20080;-72
2022/03/24 11:41:34;;;;;;;11.48;6.10;;;;;;;;;;5000124;28;20033;-71
2022/03/24 11:44:06;;;;;;;9.48;6.30;;;;;;;;;;4998710;28;20480;-71
2022/03/24 11:46:32;;;;;;;13.05;6.85;;;;;;;;;;4992440;28;20423;-72
2022/03/24 11:49:16;;;;;;;11.25;6.10;;;;;;;;;;4993934;28;20060;-72
2022/03/24 11:51:44;;;;;;;8.05;5.47;;;;;;;;;;4998875;28;20072;-72
2022/03/24 11:54:11;;;;;;;11.23;7.32;;;;;;;;;;5001653;28;20097;-70
2022/03/24 11:56:37;;;;;;;9.15;6.35;;;;;;;;;;4998826;28;20133;-71
2022/03/24 11:59:05;;;;;;;9.48;6.20;;;;;;;;;;4995000;28;20024;-71
2022/03/24 12:01:33;;;;;;;8.73;6.25;;;;;;;;;;4999696;28;20494;-71
2022/03/24 12:03:59;;;;;;;10.38;6.78;;;;;;;;;;4990089;28;20122;-72
2022/03/24 12:06:45;;;;;;;11.38;6.40;;;;;;;;;;4996140;28;20165;-71
2022/03/24 12:09:25;;;;;;;11.10;6.35;;;;;;;;;;4993762;28;20026;-72
2022/03/24 12:11:53;;;;;;;8.40;6.38;;;;;;;;;;4997041;28;20492;-71
2022/03/24 12:14:38;;;;;;;10.93;6.13;;;;;;;;;;4993938;28;20110;-72
2022/03/24 12:17:30;;;;;;;8.52;5.50;;;;;;;;;;5002401;28;20048;-70
2022/03/24 12:19:57;;;;;;;8.15;6.15;;;;;;;;;;4999902;28;20093;-72
2022/03/24 12:22:26;;;;;;;8.18;5.97;;;;;;;;;;5002502;28;20487;-71
2022/03/24 12:25:17;;;;;;;9.25;5.93;;;;;;;;;;4995094;28;20506;-71
2022/03/24 12:28:02;;;;;;;9.68;5.38;;;;;;;;;;5002585;28;20037;-72
2022/03/24 12:30:42;;;;;;;7.78;5.97;;;;;;;;;;4998333;28;20648;-72
2022/03/24 12:33:09;;;;;;;8.52;6.28;;;;;;;;;;4998954;28;20484;-72
2022/03/24 12:35:49;;;;;;;7.78;5.72;;;;;;;;;;4998345;28;20495;-72
2022/03/24 12:38:21;;;;;;;7.18;5.72;;;;;;;;;;4995853;28;20026;-72
2022/03/24 12:41:05;;;;;;;10.50;5.88;;;;;;;;;;4998777;28;20056;-72
2022/03/24 12:43:49;;;;;;;7.00;5.22;;;;;;;;;;4989015;28;20057;-72
2022/03/24 12:46:18;;;;;;;6.20;4.80;;;;;;;;;;4994970;28;20088;-72
2022/03/24 12:48:45;;;;;;;7.65;5.68;;;;;;;;;;4996813;28;20034;-72
2022/03/24 12:51:22;;;;;;;8.27;5.40;;;;;;;;;;4993689;28;20030;-72
2022/03/24 12:53:58;;;;;;;8.27;6.15;;;;;;;;;;4991031;28;20018;-72
2022/03/24 12:56:26;;;;;;;7.95;6.18;;;;;;;;;;4998959;28;20034;-72
2022/03/24 12:58:57;;;;;;;13.05;5.53;;;;;;;;;;4997759;28;20018;-73
2022/03/24 13:01:23;;;;;;;6.93;5.63;;;;;;;;;;4998955;28;20096;-73
2022/03/24 13:03:56;;;;;;;6.15;5.00;;;;;;;;;;5000755;28;20085;-73
2022/03/24 13:06:23;;;;;;;8.88;5.50;;;;;;;;;;5001353;28;20480;-73
2022/03/24 13:09:07;;;;;;;6.90;5.50;;;;;;;;;;5005957;28;20081;-73
2022/03/24 13:11:33;;;;;;;;;;;;;;;;;;5009298;28;20031;-73
2022/03/24 13:13:59;;;;;;;7.70;5.45;;;;;;;;;;5009827;28;20064;-73
2022/03/24 13:16:25;;;;;;;9.32;5.57;;;;;;;;;;5009609;28;20030;-72
2022/03/24 13:18:55;;;;;;;9.38;5.25;;;;;;;;;;5011600;28;20476;-72
2022/03/24 13:21:24;;;;;;;7.55;5.32;;;;;;;;;;5011345;28;20057;-72
2022/03/24 13:23:54;;;;;;;8.25;5.30;;;;;;;;;;5010555;28;20104;-73
2022/03/24 13:26:21;;;;;;;8.23;5.22;;;;;;;;;;5011806;28;20041;-73
2022/03/24 13:28:54;;;;;;;9.23;5.20;;;;;;;;;;5010519;28;20034;-73
2022/03/24 13:31:20;;;;;;;6.53;4.75;;;;;;;;;;5008239;28;20541;-73
2022/03/24 13:33:52;;;;;;;6.57;5.07;;;;;;;;;;5012652;28;20045;-73
2022/03/24 13:36:22;;;;;;;7.43;5.60;;;;;;;;;;5011617;28;20037;-73
2022/03/24 13:38:48;;;;;;;6.18;4.50;;;;;;;;;;5008149;28;20034;-73
2022/03/24 13:41:14;;;;;;;6.88;5.18;;;;;;;;;;5010189;28;20032;-74
2022/03/24 13:43:40;;;;;;;7.03;5.50;;;;;;;;;;5009096;28;20056;-73
2022/03/24 13:46:06;;;;;;;6.35;4.53;;;;;;;;;;5011679;28;20029;-74
2022/03/24 13:48:34;;;;;;;6.38;4.90;;;;;;;;;;5007230;28;20476;-72
2022/03/24 13:51:05;;;;;;;6.72;4.95;;;;;;;;;;5011821;28;20037;-73
2022/03/24 13:53:32;;;;;;;6.20;4.88;;;;;;;;;;5005445;28;23466;-72
2022/03/24 13:56:08;;;;;;;7.78;5.63;;;;;;;;;;5009630;28;20041;-72
2022/03/24 13:58:35;;;;;;;6.55;5.57;;;;;;;;;;5006966;28;20030;-73
2022/03/24 14:01:03;;;;;;;6.25;5.00;;;;;;;;;;5011688;28;20026;-73
2022/03/24 14:03:29;;;;;;;5.78;4.97;;;;;;;;;;5012101;28;20032;-73
2022/03/24 14:05:58;;;;;;;6.05;5.10;;;;;;;;;;5009569;28;20492;-73
2022/03/24 14:08:27;;;;;;;7.25;5.40;;;;;;;;;;5004048;28;20037;-74
2022/03/24 14:11:12;;;;;;;6.88;5.47;;;;;;;;;;5001287;28;20421;-72
2022/03/24 14:13:39;;;;;;;5.53;4.93;;;;;;;;;;5002658;28;20053;-72
2022/03/24 14:16:14;;;;;;;8.18;6.20;;;;;;;;;;5006210;28;20026;-73
2022/03/24 14:18:41;;;;;;;9.05;5.88;;;;;;;;;;5010849;28;20116;-72
2022/03/24 14:21:15;;;;;;;8.95;6.20;;;;;;;;;;5010794;28;20026;-72
2022/03/24 14:23:41;;;;;;;10.70;5.78;;;;;;;;;;5003524;28;20042;-72
2022/03/24 14:26:09;;;;;;;9.10;7.20;;;;;;;;;;5008141;28;20053;-72
2022/03/24 14:28:40;;;;;;;9.55;6.45;;;;;;;;;;5010171;28;20392;-72
2022/03/24 14:31:07;;;;;;;13.98;6.93;;;;;;;;;;5006038;28;20060;-72